Time;durP1;ratioP1;P1;durP2;ratioP2;P2;SDS_P1;SDS_P2;PMS_P1;PMS_P2;Temp;Humidity;BMP_temperature;BMP_pressure;BME280_temperature;BME280_humidity;BME280_pressure;Samples;Min_cycle;Max_cycle;Signal;HPM_P1;HPM_P2
2022/03/29 00:01:37;;;;;;;25.27;13.60;;;11.90;91.30;;;;;;5013323;28;20030;-72
2022/03/29 00:04:03;;;;;;;21.83;12.90;;;11.90;91.30;;;;;;5013391;28;20402;-72
2022/03/29 00:06:29;;;;;;;23.87;13.13;;;11.90;91.40;;;;;;5013131;28;20037;-72
2022/03/29 00:08:56;;;;;;;27.17;14.13;;;11.90;91.40;;;;;;5012041;28;20033;-71
2022/03/29 00:11:22;;;;;;;27.00;14.03;;;11.80;91.40;;;;;;5013059;28;20075;-72
2022/03/29 00:13:47;;;;;;;26.33;14.20;;;11.80;91.50;;;;;;5013149;28;20113;-72
2022/03/29 00:16:13;;;;;;;23.23;13.63;;;11.80;91.50;;;;;;5012949;28;20467;-72
2022/03/29 00:18:39;;;;;;;28.57;14.53;;;11.80;91.50;;;;;;5012999;28;20034;-72
2022/03/29 00:21:05;;;;;;;25.97;14.53;;;11.80;91.50;;;;;;5012734;28;20034;-72
2022/03/29 00:23:31;;;;;;;27.67;14.20;;;11.80;91.60;;;;;;5012829;28;20030;-72
2022/03/29 00:25:57;;;;;;;26.17;15.37;;;11.80;91.60;;;;;;5012768;28;20030;-71
2022/03/29 00:28:23;;;;;;;26.43;13.90;;;11.70;91.70;;;;;;5012555;28;20521;-71
2022/03/29 00:30:49;;;;;;;26.13;15.00;;;11.70;91.80;;;;;;5012872;28;20030;-72
2022/03/29 00:33:15;;;;;;;25.57;14.83;;;11.60;91.80;;;;;;5012441;28;20616;-72
2022/03/29 00:35:41;;;;;;;26.97;14.57;;;11.60;91.90;;;;;;5012582;28;20041;-72
2022/03/29 00:38:07;;;;;;;26.80;15.70;;;11.50;91.90;;;;;;5011355;28;20032;-72
2022/03/29 00:40:33;;;;;;;28.57;15.63;;;11.50;91.90;;;;;;5011408;28;20045;-72
2022/03/29 00:42:58;;;;;;;28.67;15.30;;;11.50;92.00;;;;;;5012286;28;20030;-72
2022/03/29 00:45:25;;;;;;;26.23;15.43;;;11.50;92.00;;;;;;5012430;28;20403;-71
2022/03/29 00:47:50;;;;;;;25.53;14.47;;;11.50;92.10;;;;;;5012319;28;20037;-71
2022/03/29 00:50:18;;;;;;;27.63;15.27;;;11.60;92.10;;;;;;5012409;28;20044;-71
2022/03/29 00:52:44;;;;;;;29.07;14.77;;;11.50;92.00;;;;;;4994618;28;20486;-72
2022/03/29 00:55:15;;;;;;;27.23;14.93;;;11.50;92.10;;;;;;5012197;28;20025;-72
2022/03/29 00:57:41;;;;;;;23.97;14.50;;;11.50;92.10;;;;;;5027353;28;20072;-70
2022/03/29 01:00:08;;;;;;;26.73;15.13;;;11.60;92.10;;;;;;5027725;28;20030;-71
2022/03/29 01:02:35;;;;;;;26.10;15.03;;;11.60;92.10;;;;;;5012112;28;20029;-72
2022/03/29 01:05:01;;;;;;;26.40;15.13;;;11.60;92.00;;;;;;5010722;28;20044;-72
2022/03/29 01:07:27;;;;;;;26.20;14.30;;;11.60;92.00;;;;;;5012047;28;20033;-71
2022/03/29 01:09:54;;;;;;;25.00;14.73;;;11.70;92.00;;;;;;5012081;28;20049;-72
2022/03/29 01:12:22;;;;;;;23.77;14.67;;;11.60;92.00;;;;;;5011703;28;20130;-71
2022/03/29 01:14:47;;;;;;;28.33;15.03;;;11.60;92.30;;;;;;5012184;28;20680;-72
2022/03/29 01:20:01;;;;;;;26.23;14.97;;;11.60;92.00;;;;;;5011939;28;20101;-72
2022/03/29 01:22:29;;;;;;;28.87;15.20;;;11.60;91.90;;;;;;5011688;28;20038;-72
2022/03/29 01:24:56;;;;;;;26.43;15.63;;;11.60;91.90;;;;;;5011590;28;20033;-72
2022/03/29 01:27:23;;;;;;;24.30;15.30;;;11.60;91.90;;;;;;5011563;28;20030;-71
2022/03/29 01:29:49;;;;;;;28.73;16.23;;;11.60;92.20;;;;;;5011810;28;20463;-71
2022/03/29 01:32:16;;;;;;;28.37;15.83;;;11.60;91.90;;;;;;5011566;28;20045;-72
2022/03/29 01:34:43;;;;;;;28.13;15.53;;;11.50;92.00;;;;;;5011669;28;20092;-72
2022/03/29 01:37:10;;;;;;;27.83;16.33;;;11.50;92.10;;;;;;5011243;28;20442;-72
2022/03/29 01:39:37;;;;;;;26.00;15.70;;;11.50;92.20;;;;;;5011560;28;20030;-72
2022/03/29 01:42:04;;;;;;;26.07;15.77;;;11.50;92.20;;;;;;5009698;28;20177;-72
2022/03/29 01:44:30;;;;;;;25.27;15.50;;;11.50;92.30;;;;;;5011528;28;20029;-72
2022/03/29 01:46:56;;;;;;;26.60;15.83;;;11.50;92.20;;;;;;5011283;28;20434;-72
2022/03/29 01:49:22;;;;;;;29.13;16.07;;;11.40;92.30;;;;;;5011480;28;20038;-72
2022/03/29 01:51:49;;;;;;;28.50;16.43;;;11.40;92.30;;;;;;5011274;28;20076;-72
2022/03/29 01:54:15;;;;;;;31.83;16.70;;;11.40;92.30;;;;;;5011342;28;20554;-72
2022/03/29 01:56:41;;;;;;;27.57;16.10;;;11.30;92.50;;;;;;5011025;28;20390;-72
2022/03/29 01:59:11;;;;;;;28.60;16.60;;;11.40;92.50;;;;;;5011364;28;20030;-72
2022/03/29 02:01:48;;;;;;;29.37;17.17;;;11.30;92.50;;;;;;5011193;28;20041;-72
2022/03/29 02:04:15;;;;;;;26.77;15.43;;;11.30;92.50;;;;;;5011234;28;20045;-71
2022/03/29 02:06:41;;;;;;;28.80;16.00;;;11.40;92.50;;;;;;5009571;28;20061;-72
2022/03/29 02:09:07;;;;;;;28.57;17.10;;;11.40;92.50;;;;;;5011171;28;20030;-72
2022/03/29 02:11:35;;;;;;;28.67;16.43;;;11.40;92.50;;;;;;5011014;28;20490;-71
2022/03/29 02:14:02;;;;;;;26.30;16.60;;;11.40;92.50;;;;;;5011080;28;20030;-71
2022/03/29 02:16:28;;;;;;;28.47;16.43;;;11.40;92.60;;;;;;5010798;28;20026;-72
2022/03/29 02:18:54;;;;;;;26.40;15.87;;;11.30;92.60;;;;;;5011003;28;20026;-72
2022/03/29 02:21:20;;;;;;;29.50;17.33;;;11.30;92.60;;;;;;5010871;28;20398;-72
2022/03/29 02:23:46;;;;;;;32.40;17.90;;;11.30;92.60;;;;;;5009824;28;20032;-71
2022/03/29 02:26:12;;;;;;;29.47;17.87;;;11.30;92.70;;;;;;5009580;28;20026;-71
2022/03/29 02:28:37;;;;;;;29.53;18.07;;;11.30;93.00;;;;;;5010960;28;20060;-72
2022/03/29 02:31:04;;;;;;;30.63;17.57;;;11.30;92.70;;;;;;5010956;28;20033;-72
2022/03/29 02:33:30;;;;;;;30.87;18.37;;;11.30;92.80;;;;;;5010684;28;20036;-71
2022/03/29 02:35:56;;;;;;;28.00;17.07;;;11.30;92.70;;;;;;5010813;28;20041;-71
2022/03/29 02:38:22;;;;;;;29.83;18.83;;;11.40;92.80;;;;;;5010722;28;20026;-71
2022/03/29 02:40:48;;;;;;;31.17;17.77;;;11.30;92.80;;;;;;5010852;28;20026;-72
2022/03/29 02:43:15;;;;;;;33.57;18.97;;;11.30;92.80;;;;;;5010740;28;20395;-72
2022/03/29 02:45:41;;;;;;;31.20;18.47;;;11.30;92.80;;;;;;5010794;28;20030;-72
2022/03/29 02:48:07;;;;;;;31.83;19.50;;;11.30;92.80;;;;;;5010707;28;20576;-72
2022/03/29 02:50:33;;;;;;;31.83;19.07;;;11.30;92.80;;;;;;5011015;28;20407;-72
2022/03/29 02:53:02;;;;;;;33.03;19.27;;;11.30;92.80;;;;;;5010530;28;20034;-71
2022/03/29 02:55:30;;;;;;;33.00;18.60;;;11.30;92.80;;;;;;5012384;28;20043;-72
2022/03/29 02:57:57;;;;;;;32.63;19.17;;;11.20;92.90;;;;;;5014483;28;20037;-71
2022/03/29 03:00:24;;;;;;;30.60;18.97;;;11.20;93.00;;;;;;5013217;28;20514;-71
2022/03/29 03:02:51;;;;;;;29.77;18.67;;;11.20;93.00;;;;;;5014525;28;20105;-72
2022/03/29 03:05:21;;;;;;;31.10;19.57;;;11.20;93.10;;;;;;5014257;28;20030;-71
2022/03/29 03:07:48;;;;;;;28.80;18.90;;;11.20;93.20;;;;;;5014232;28;20453;-71
2022/03/29 03:10:14;;;;;;;31.03;19.53;;;11.20;93.20;;;;;;5014260;28;20046;-72
2022/03/29 03:12:43;;;;;;;32.13;19.83;;;11.20;93.20;;;;;;5014035;28;20051;-71
2022/03/29 03:15:11;;;;;;;31.42;19.23;;;11.20;93.20;;;;;;5014061;28;20030;-71
2022/03/29 03:17:37;;;;;;;35.60;21.33;;;11.20;93.20;;;;;;5014114;28;20544;-71
2022/03/29 03:20:05;;;;;;;30.50;19.40;;;11.10;93.30;;;;;;5014212;28;20072;-72
2022/03/29 03:22:32;;;;;;;36.13;19.63;;;11.10;93.30;;;;;;5012684;28;20045;-72
2022/03/29 03:24:58;;;;;;;35.83;20.47;;;11.10;93.40;;;;;;5013907;28;20490;-71
2022/03/29 03:27:23;;;;;;;34.30;20.97;;;11.10;93.40;;;;;;5013689;28;20487;-71
2022/03/29 03:29:49;;;;;;;34.57;20.20;;;11.10;93.40;;;;;;5014024;28;20030;-72
2022/03/29 03:32:15;;;;;;;35.70;20.57;;;11.00;93.50;;;;;;5013985;28;20038;-71
2022/03/29 03:34:41;;;;;;;33.67;21.33;;;11.00;93.60;;;;;;5013909;28;20029;-72
2022/03/29 03:37:08;;;;;;;35.50;21.50;;;11.00;93.70;;;;;;5013643;28;20066;-71
2022/03/29 03:39:37;;;;;;;36.60;22.07;;;11.00;93.70;;;;;;5013730;28;20061;-70
2022/03/29 03:42:09;;;;;;;35.47;20.80;;;11.00;93.70;;;;;;5013543;28;20045;-72
2022/03/29 03:44:36;;;;;;;36.13;20.73;;;10.90;93.60;;;;;;5012355;28;20041;-72
2022/03/29 03:47:03;;;;;;;36.63;22.03;;;10.90;93.70;;;;;;5013418;28;20165;-71
2022/03/29 03:49:29;;;;;;;33.13;20.27;;;10.90;93.80;;;;;;5012518;28;20431;-72
2022/03/29 03:51:55;;;;;;;36.97;22.77;;;10.80;93.90;;;;;;5013394;28;20060;-72
2022/03/29 03:54:21;;;;;;;36.53;22.17;;;10.80;93.90;;;;;;5013516;28;20498;-72
2022/03/29 03:56:47;;;;;;;35.33;21.90;;;10.90;94.00;;;;;;5013232;28;20030;-72
2022/03/29 03:59:13;;;;;;;38.67;22.03;;;10.90;93.90;;;;;;5013568;28;20040;-72
2022/03/29 04:01:39;;;;;;;40.80;22.20;;;10.80;94.00;;;;;;5013421;28;20038;-71
2022/03/29 04:04:05;;;;;;;35.00;21.43;;;10.80;94.10;;;;;;5013267;28;20410;-70
2022/03/29 04:06:31;;;;;;;35.27;21.00;;;10.80;94.20;;;;;;5012681;28;20036;-71
2022/03/29 04:08:57;;;;;;;34.53;22.30;;;10.70;94.20;;;;;;5013282;28;20034;-71
2022/03/29 04:11:23;;;;;;;34.87;21.40;;;10.80;94.30;;;;;;5012906;28;20121;-72
2022/03/29 04:13:49;;;;;;;37.87;21.93;;;10.80;94.30;;;;;;5013355;28;20030;-72
2022/03/29 04:16:15;;;;;;;34.63;21.87;;;10.70;94.20;;;;;;5011948;28;20546;-72
2022/03/29 04:18:41;;;;;;;40.07;23.73;;;10.70;94.40;;;;;;5012994;28;20453;-72
2022/03/29 04:21:08;;;;;;;39.67;22.17;;;10.70;94.50;;;;;;5011662;28;20044;-71
2022/03/29 04:23:37;;;;;;;38.53;23.27;;;10.70;94.40;;;;;;5011705;28;20645;-71
2022/03/29 04:26:04;;;;;;;39.63;23.27;;;10.70;94.40;;;;;;5012230;28;20092;-71
2022/03/29 04:28:31;;;;;;;40.77;23.43;;;10.70;94.50;;;;;;5008918;28;20034;-72
2022/03/29 04:30:59;;;;;;;40.63;24.07;;;10.70;94.50;;;;;;5009895;28;20025;-70
2022/03/29 04:33:26;;;;;;;39.97;23.70;;;10.70;94.50;;;;;;5011495;28;20055;-72
2022/03/29 04:35:52;;;;;;;43.30;24.47;;;10.70;94.50;;;;;;5010073;28;20120;-73
2022/03/29 04:38:18;;;;;;;37.77;22.93;;;10.70;94.60;;;;;;5011481;28;20026;-70
2022/03/29 04:40:44;;;;;;;41.27;23.03;;;10.70;94.50;;;;;;5026397;28;20133;-72
2022/03/29 04:43:09;;;;;;;42.17;24.00;;;10.70;94.50;;;;;;5010868;28;20046;-74
2022/03/29 04:45:35;;;;;;;39.97;24.40;;;10.60;94.60;;;;;;5009774;28;20041;-71
2022/03/29 04:48:01;;;;;;;43.83;26.27;;;10.60;94.70;;;;;;5011057;28;20052;-69
2022/03/29 04:50:29;;;;;;;40.83;24.80;;;10.60;94.70;;;;;;5011238;28;20034;-70
2022/03/29 04:52:55;;;;;;;39.03;23.90;;;10.60;94.70;;;;;;5010647;28;20475;-71
2022/03/29 04:55:21;;;;;;;41.07;24.47;;;10.60;94.80;;;;;;5011225;28;20092;-70
2022/03/29 04:57:49;;;;;;;41.47;24.90;;;10.60;94.80;;;;;;5010903;28;20513;-71
2022/03/29 05:00:20;;;;;;;40.23;25.33;;;10.60;94.70;;;;;;5010553;28;20054;-71
2022/03/29 05:02:46;;;;;;;45.17;27.07;;;10.60;94.80;;;;;;5009036;28;20598;-71
2022/03/29 05:05:13;;;;;;;41.47;24.97;;;10.60;94.80;;;;;;5011036;28;20030;-71
2022/03/29 05:07:43;;;;;;;42.23;26.13;;;10.60;94.80;;;;;;5010610;28;20069;-70
2022/03/29 05:10:11;;;;;;;42.03;26.43;;;10.50;94.90;;;;;;5010863;28;20392;-70
2022/03/29 05:12:45;;;;;;;47.23;26.37;;;10.50;95.00;;;;;;5010512;28;20029;-70
2022/03/29 05:15:13;;;;;;;44.67;25.97;;;10.50;95.00;;;;;;5009948;28;20034;-70
2022/03/29 05:17:39;;;;;;;43.33;26.47;;;10.40;95.20;;;;;;5009805;28;20040;-70
2022/03/29 05:20:07;;;;;;;43.23;26.97;;;10.40;95.20;;;;;;5010925;28;20029;-71
2022/03/29 05:22:47;;;;;;;43.00;27.03;;;10.40;95.10;;;;;;5009536;28;20063;-71
2022/03/29 05:25:15;;;;;;;47.13;26.60;;;10.40;95.10;;;;;;5011089;28;20030;-71
2022/03/29 05:27:42;;;;;;;46.07;27.87;;;10.40;95.20;;;;;;5009663;28;20038;-69
2022/03/29 05:30:10;;;;;;;47.43;26.57;;;10.40;95.20;;;;;;5010468;28;20033;-70
2022/03/29 05:32:36;;;;;;;41.40;25.47;;;10.50;95.20;;;;;;5009271;28;20057;-70
2022/03/29 05:35:04;;;;;;;46.63;27.07;;;10.50;95.20;;;;;;5010618;28;20447;-70
2022/03/29 05:37:30;;;;;;;43.97;27.73;;;10.40;95.10;;;;;;5010415;28;20513;-69
2022/03/29 05:39:55;;;;;;;52.93;27.77;;;10.50;95.20;;;;;;5010452;28;20509;-70
2022/03/29 05:42:21;;;;;;;43.40;26.50;;;10.50;95.20;;;;;;5010634;28;20046;-69
2022/03/29 05:44:48;;;;;;;48.33;28.10;;;10.40;95.20;;;;;;5008781;28;20041;-70
2022/03/29 05:49:58;;;;;;;43.93;28.13;;;10.40;95.40;;;;;;5010493;28;20034;-70
2022/03/29 05:52:25;;;;;;;43.70;27.73;;;10.40;95.40;;;;;;5010474;28;20044;-69
2022/03/29 05:54:51;;;;;;;46.13;27.37;;;10.40;95.30;;;;;;5010686;28;20060;-69
2022/03/29 05:57:19;;;;;;;45.93;28.37;;;10.40;95.20;;;;;;5010662;28;20022;-69
2022/03/29 05:59:45;;;;;;;42.67;26.80;;;10.40;95.30;;;;;;5009641;28;20026;-69
2022/03/29 06:02:12;;;;;;;43.97;27.50;;;10.30;95.40;;;;;;5010290;28;20072;-70
2022/03/29 06:04:39;;;;;;;44.80;27.97;;;10.40;95.40;;;;;;5010188;28;20053;-70
2022/03/29 06:07:06;;;;;;;48.50;28.60;;;10.30;95.40;;;;;;5010139;28;20091;-70
2022/03/29 06:09:33;;;;;;;46.00;29.53;;;10.30;95.40;;;;;;5009864;28;20030;-69
2022/03/29 06:11:59;;;;;;;48.13;28.53;;;10.20;95.60;;;;;;5010114;28;20041;-69
2022/03/29 06:14:25;;;;;;;48.40;28.50;;;10.30;95.60;;;;;;5009577;28;20402;-69
2022/03/29 06:16:51;;;;;;;44.37;28.37;;;10.30;95.40;;;;;;5009809;28;20367;-69
2022/03/29 06:19:18;;;;;;;46.07;29.33;;;10.30;95.40;;;;;;5009967;28;20109;-69
2022/03/29 06:21:45;;;;;;;49.77;30.07;;;10.30;95.50;;;;;;5009728;28;20030;-70
2022/03/29 06:24:11;;;;;;;49.23;28.73;;;10.30;95.50;;;;;;5009918;28;20515;-69
2022/03/29 06:26:41;;;;;;;49.23;30.07;;;10.30;95.50;;;;;;5009792;28;20025;-69
2022/03/29 06:29:08;;;;;;;46.77;27.93;;;10.30;95.60;;;;;;5011897;28;20052;-70
2022/03/29 06:31:34;;;;;;;53.67;29.73;;;10.30;95.50;;;;;;5013804;28;20022;-70
2022/03/29 06:34:01;;;;;;;50.43;30.10;;;10.30;95.60;;;;;;5014193;28;20408;-70
2022/03/29 06:36:26;;;;;;;56.03;32.20;;;10.30;95.60;;;;;;5013695;28;20026;-70
2022/03/29 06:38:53;;;;;;;56.97;32.83;;;10.30;95.60;;;;;;5012333;28;20084;-69
2022/03/29 06:41:19;;;;;;;60.37;32.90;;;10.30;95.50;;;;;;5013921;28;20541;-69
2022/03/29 06:43:45;;;;;;;53.53;31.47;;;10.30;95.50;;;;;;5012863;28;20076;-69
2022/03/29 06:46:11;;;;;;;61.00;33.43;;;10.30;95.70;;;;;;5013232;28;20080;-70
2022/03/29 06:48:41;;;;;;;57.53;33.27;;;10.30;95.40;;;;;;5013152;28;20041;-71
2022/03/29 06:51:13;;;;;;;71.47;37.10;;;10.30;95.40;;;;;;5013748;28;20034;-69
2022/03/29 06:53:40;;;;;;;69.23;35.87;;;10.20;95.30;;;;;;5013112;28;20080;-70
2022/03/29 06:56:07;;;;;;;70.00;37.33;;;10.20;95.50;;;;;;5013608;28;20025;-70
2022/03/29 06:58:36;;;;;;;67.10;35.33;;;10.20;95.50;;;;;;5013013;28;20028;-70
2022/03/29 07:01:03;;;;;;;;;;;10.20;95.50;;;;;;5014105;28;20510;-70
2022/03/29 07:03:30;;;;;;;72.07;36.20;;;10.20;95.50;;;;;;5013344;28;19910;-70
2022/03/29 07:05:58;;;;;;;74.13;38.57;;;10.30;95.50;;;;;;5013544;28;20409;-70
2022/03/29 07:08:25;;;;;;;79.47;38.90;;;10.20;95.70;;;;;;5013081;28;20033;-70
2022/03/29 07:13:36;;;;;;;77.20;39.60;;;10.20;95.60;;;;;;5012703;28;20034;-71
2022/03/29 07:16:02;;;;;;;80.90;39.93;;;10.30;95.50;;;;;;5013387;28;20057;-71
2022/03/29 07:18:27;;;;;;;83.07;40.20;;;10.30;95.80;;;;;;5011679;28;20447;-71
2022/03/29 07:20:53;;;;;;;84.13;40.60;;;10.30;95.60;;;;;;5026471;28;20136;-71
2022/03/29 07:23:19;;;;;;;77.07;39.73;;;10.30;95.50;;;;;;5012882;28;20065;-71
2022/03/29 07:25:45;;;;;;;81.73;38.13;;;10.40;95.60;;;;;;5012751;28;20482;-71
2022/03/29 07:28:15;;;;;;;76.60;37.63;;;10.40;95.60;;;;;;5011946;28;20068;-71
2022/03/29 07:30:46;;;;;;;;;;;10.40;95.50;;;;;;5012846;28;20030;-71
2022/03/29 07:33:13;;;;;;;79.37;37.97;;;10.50;95.50;;;;;;5012498;28;19914;-71
2022/03/29 07:35:39;;;;;;;83.17;38.47;;;10.50;95.30;;;;;;5012717;28;20038;-71
2022/03/29 07:38:08;;;;;;;83.33;39.97;;;10.60;95.20;;;;;;5012762;28;20042;-71
2022/03/29 07:40:34;;;;;;;75.23;38.23;;;10.50;95.20;;;;;;5011887;28;20057;-71
2022/03/29 07:43:00;;;;;;;87.67;42.20;;;10.60;95.30;;;;;;5026986;28;20284;-71
2022/03/29 07:45:27;;;;;;;92.80;43.47;;;10.60;95.00;;;;;;5012206;28;20075;-71
2022/03/29 07:47:56;;;;;;;94.47;44.30;;;10.60;95.20;;;;;;5027368;28;20038;-71
2022/03/29 07:50:26;;;;;;;95.18;44.00;;;10.60;95.20;;;;;;5012753;28;20095;-71
2022/03/29 07:52:54;;;;;;;95.90;45.80;;;10.60;95.20;;;;;;5012308;28;20645;-71
2022/03/29 07:55:20;;;;;;;96.53;46.40;;;10.60;95.20;;;;;;5012723;28;20026;-71
2022/03/29 07:57:46;;;;;;;87.70;42.03;;;10.70;95.20;;;;;;5011132;28;20049;-71
2022/03/29 08:00:32;;;;;;;96.30;43.93;;;10.70;95.20;;;;;;5011906;28;20432;-71
2022/03/29 08:03:03;;;;;;;93.37;42.97;;;10.70;95.10;;;;;;5012484;28;20156;-71
2022/03/29 08:05:29;;;;;;;90.37;43.50;;;10.70;95.40;;;;;;5012212;28;20473;-71
2022/03/29 08:07:59;;;;;;;88.30;41.67;;;10.70;95.70;;;;;;5011992;28;20030;-71
2022/03/29 08:10:27;;;;;;;97.87;46.30;;;10.80;95.70;;;;;;5012404;28;20041;-70
2022/03/29 08:12:57;;;;;;;112.88;46.97;;;10.80;95.50;;;;;;5011944;28;20415;-70
2022/03/29 08:15:23;;;;;;;126.90;52.70;;;10.80;95.70;;;;;;5011748;28;20052;-70
2022/03/29 08:17:50;;;;;;;128.43;52.40;;;10.70;96.00;;;;;;5026888;28;20450;-72
2022/03/29 08:20:15;;;;;;;137.30;52.83;;;10.60;96.90;;;;;;5011690;28;20026;-71
2022/03/29 08:22:44;;;;;;;128.70;53.33;;;10.70;96.20;;;;;;5032022;22;20050;-84
2022/03/29 08:25:12;;;;;;;125.97;51.78;;;10.90;96.70;;;;;;5011060;28;20092;-83
2022/03/29 08:27:38;;;;;;;121.47;50.97;;;10.90;95.70;;;;;;5010268;28;20040;-84
2022/03/29 08:30:05;;;;;;;120.77;50.80;;;10.90;95.50;;;;;;5011225;28;20112;-85
2022/03/29 08:32:32;;;;;;;122.50;51.47;;;11.00;95.60;;;;;;5011036;28;20030;-83
2022/03/29 08:34:59;;;;;;;115.90;49.97;;;11.00;95.00;;;;;;5009830;28;20088;-83
2022/03/29 08:37:25;;;;;;;111.30;48.67;;;11.00;94.80;;;;;;5026508;28;20160;-83
2022/03/29 08:39:50;;;;;;;108.93;47.87;;;11.00;94.80;;;;;;5010548;28;20022;-83
2022/03/29 08:42:20;;;;;;;115.60;50.03;;;11.00;94.60;;;;;;5010965;28;20681;-82
2022/03/29 08:44:46;;;;;;;122.53;51.53;;;11.00;94.90;;;;;;5010353;28;20493;-82
2022/03/29 08:47:15;;;;;;;118.60;51.20;;;10.90;94.90;;;;;;5011181;28;20081;-82
2022/03/29 08:49:42;;;;;;;;;;;11.00;94.60;;;;;;5011536;28;20030;-83
2022/03/29 08:52:08;;;;;;;115.00;52.60;;;10.90;94.80;;;;;;5009425;28;20008;-82
2022/03/29 08:54:34;;;;;;;126.77;54.27;;;10.80;94.90;;;;;;5010208;28;20037;-82
2022/03/29 08:57:00;;;;;;;138.60;57.80;;;10.90;95.30;;;;;;5011299;28;20033;-81
2022/03/29 08:59:27;;;;;;;143.07;58.43;;;10.80;95.30;;;;;;5009397;28;20025;-82
2022/03/29 09:01:56;;;;;;;145.67;59.30;;;10.90;95.30;;;;;;5009402;28;20041;-82
2022/03/29 09:04:24;;;;;;;148.10;62.17;;;10.90;95.00;;;;;;5010955;28;20557;-82
2022/03/29 09:06:50;;;;;;;157.33;64.77;;;10.90;94.90;;;;;;5010582;28;20042;-82
2022/03/29 09:09:27;;;;;;;151.67;60.87;;;10.90;95.10;;;;;;5009594;28;20037;-81
2022/03/29 09:11:56;;;;;;;146.57;57.77;;;10.90;95.20;;;;;;5010603;28;20030;-87
2022/03/29 09:14:23;;;;;;;135.17;57.00;;;10.90;95.50;;;;;;5008993;28;20104;-82
2022/03/29 09:16:50;;;;;;;155.40;60.63;;;10.90;95.00;;;;;;5010922;28;20053;-82
2022/03/29 09:19:16;;;;;;;139.60;58.33;;;10.90;95.00;;;;;;5010676;28;20022;-82
2022/03/29 09:21:43;;;;;;;151.30;60.80;;;10.90;95.10;;;;;;5009010;28;20443;-83
2022/03/29 09:24:14;;;;;;;154.53;60.93;;;10.80;95.20;;;;;;5010316;28;20643;-83
2022/03/29 09:26:42;;;;;;;138.70;55.10;;;10.80;95.30;;;;;;5010957;28;20026;-83
2022/03/29 09:29:26;;;;;;;122.00;53.00;;;10.80;95.30;;;;;;5008718;28;20034;-82
2022/03/29 09:32:06;;;;;;;118.60;49.63;;;10.80;95.30;;;;;;5008893;28;20030;-83
2022/03/29 09:34:32;;;;;;;113.23;48.67;;;10.80;95.20;;;;;;5010661;28;20117;-83
2022/03/29 09:37:00;;;;;;;119.93;46.73;;;10.80;95.00;;;;;;5010288;28;20401;-83
2022/03/29 09:39:48;;;;;;;112.50;46.40;;;10.80;95.10;;;;;;5025120;28;20442;-82
2022/03/29 09:42:21;;;;;;;113.37;44.43;;;10.70;95.10;;;;;;5025094;28;20034;-82
2022/03/29 09:44:48;;;;;;;131.77;50.63;;;10.80;95.40;;;;;;5009833;28;20033;-82
2022/03/29 09:47:20;;;;;;;115.23;46.80;;;10.70;95.40;;;;;;5010004;28;20054;-82
2022/03/29 09:49:57;;;;;;;128.57;49.07;;;10.70;95.50;;;;;;5010074;28;20473;-81
2022/03/29 09:52:28;;;;;;;117.00;46.57;;;10.70;95.40;;;;;;5009882;28;20091;-82
2022/03/29 09:55:10;;;;;;;127.97;49.07;;;10.70;95.70;;;;;;5009344;28;20037;-82
2022/03/29 09:58:13;;;;;;;124.87;48.57;;;10.80;95.30;;;;;;5009773;28;20038;-82
2022/03/29 10:00:40;;;;;;;119.60;46.73;;;10.90;95.20;;;;;;5004939;28;20045;-83
2022/03/29 10:03:11;;;;;;;123.93;50.10;;;10.90;95.10;;;;;;5008777;28;20041;-82
2022/03/29 10:05:40;;;;;;;136.13;51.13;;;10.90;95.20;;;;;;5010178;28;20045;-90
2022/03/29 10:10:55;;;;;;;124.97;50.05;;;11.00;95.20;;;;;;5009738;28;20390;-83
2022/03/29 10:13:23;;;;;;;130.07;53.47;;;11.00;95.00;;;;;;5008654;28;20046;-82
2022/03/29 10:15:51;;;;;;;123.73;51.27;;;11.10;94.90;;;;;;5009524;28;20080;-83
2022/03/29 10:18:18;;;;;;;120.00;49.93;;;11.10;94.80;;;;;;5008231;28;20080;-82
2022/03/29 10:20:44;;;;;;;135.93;55.70;;;11.20;95.00;;;;;;5008534;28;20030;-82
2022/03/29 10:23:14;;;;;;;142.33;59.37;;;11.10;94.60;;;;;;5008681;28;20083;-82
2022/03/29 10:25:41;;;;;;;132.63;55.40;;;11.10;94.90;;;;;;5009778;28;20041;-84
2022/03/29 10:28:08;;;;;;;132.00;55.13;;;11.10;94.90;;;;;;5023792;28;20041;-85
2022/03/29 10:30:36;;;;;;;138.93;57.57;;;11.10;95.00;;;;;;5008576;28;20034;-84
2022/03/29 10:33:22;;;;;;;135.48;55.78;;;11.10;95.20;;;;;;5009131;28;20118;-83
2022/03/29 10:36:11;;;;;;;132.23;54.37;;;11.20;94.80;;;;;;5008505;28;20489;-83
2022/03/29 10:38:49;;;;;;;130.52;54.30;;;11.20;94.80;;;;;;5024050;28;20505;-83
2022/03/29 10:41:30;;;;;;;125.95;51.72;;;11.20;94.80;;;;;;5009921;28;20030;-82
2022/03/29 10:44:04;;;;;;;138.00;57.33;;;11.20;95.10;;;;;;5007631;28;20060;-83
2022/03/29 10:46:41;;;;;;;136.70;58.70;;;11.30;94.80;;;;;;5009283;28;20413;-82
2022/03/29 10:49:31;;;;;;;134.10;58.80;;;11.30;94.70;;;;;;5009931;28;20080;-85
2022/03/29 10:52:19;;;;;;;145.27;61.43;;;11.30;94.80;;;;;;5009560;28;20038;-85
2022/03/29 10:54:45;;;;;;;129.48;58.35;;;11.30;94.70;;;;;;5009030;28;20121;-85
2022/03/29 10:57:26;;;;;;;134.00;58.97;;;11.30;94.60;;;;;;5007783;28;20037;-86
2022/03/29 11:00:14;;;;;;;137.60;58.50;;;11.40;94.50;;;;;;5007823;28;20125;-82
2022/03/29 11:03:06;;;;;;;144.07;60.33;;;11.40;94.70;;;;;;5024384;28;20427;-83
2022/03/29 11:05:32;;;;;;;129.17;58.73;;;11.40;94.80;;;;;;5024640;28;20139;-82
2022/03/29 11:08:10;;;;;;;126.57;57.60;;;11.50;94.40;;;;;;5008974;28;20068;-83
2022/03/29 11:10:39;;;;;;;131.80;58.33;;;11.50;94.40;;;;;;5009914;28;20080;-81
2022/03/29 11:13:26;;;;;;;130.57;57.10;;;11.60;94.50;;;;;;5008208;28;20516;-83
2022/03/29 11:15:51;;;;;;;136.70;62.00;;;11.70;94.30;;;;;;4993942;28;20036;-83
2022/03/29 11:18:37;;;;;;;128.20;60.50;;;11.80;94.20;;;;;;5012705;28;20117;-83
2022/03/29 11:21:04;;;;;;;127.40;58.73;;;11.80;94.00;;;;;;5013140;28;20099;-82
2022/03/29 11:23:39;;;;;;;124.83;56.37;;;11.80;94.00;;;;;;5027629;28;20068;-83
2022/03/29 11:26:15;;;;;;;122.90;57.77;;;11.80;94.10;;;;;;5013237;28;20030;-83
2022/03/29 11:28:57;;;;;;;120.50;58.77;;;11.70;94.10;;;;;;5011793;28;20026;-83
2022/03/29 11:31:31;;;;;;;119.07;54.73;;;11.50;94.40;;;;;;5012557;28;20026;-82
2022/03/29 11:33:57;;;;;;;115.93;54.47;;;11.50;94.50;;;;;;4994985;28;20033;-83
2022/03/29 11:36:22;;;;;;;122.00;57.07;;;11.50;94.50;;;;;;5027895;28;20060;-83
2022/03/29 11:38:49;;;;;;;123.03;56.67;;;11.50;94.40;;;;;;5011927;28;20022;-82
2022/03/29 11:41:31;;;;;;;123.60;55.80;;;11.40;94.50;;;;;;5027575;28;20103;-83
2022/03/29 11:44:00;;;;;;;124.57;55.17;;;11.50;94.30;;;;;;5010182;28;20048;-83
2022/03/29 11:46:44;;;;;;;111.67;52.70;;;11.50;94.50;;;;;;5011432;28;20034;-82
2022/03/29 11:49:10;;;;;;;117.23;56.07;;;11.60;94.40;;;;;;5013127;28;20091;-83
2022/03/29 11:51:36;;;;;;;120.57;57.30;;;11.60;94.00;;;;;;5012220;28;20034;-82
2022/03/29 11:54:01;;;;;;;130.80;62.43;;;11.60;94.30;;;;;;5011115;28;20434;-82
2022/03/29 11:56:27;;;;;;;135.23;63.43;;;11.60;94.00;;;;;;5012044;28;20033;-82
2022/03/29 11:58:55;;;;;;;120.83;58.97;;;11.50;94.30;;;;;;5010837;28;20073;-82
2022/03/29 12:01:28;;;;;;;114.53;55.50;;;11.50;94.30;;;;;;5010325;28;20073;-83
2022/03/29 12:03:56;;;;;;;104.90;50.10;;;11.60;94.20;;;;;;5010199;28;20377;-83
2022/03/29 12:06:25;;;;;;;109.40;52.43;;;11.60;94.30;;;;;;5011562;28;20157;-83
2022/03/29 12:08:57;;;;;;;97.72;48.28;;;11.70;94.20;;;;;;5026344;28;20040;-84
2022/03/29 12:11:33;;;;;;;107.13;51.90;;;11.80;94.30;;;;;;5011633;28;20053;-83
2022/03/29 12:14:11;;;;;;;102.07;49.40;;;11.90;93.90;;;;;;5010630;28;20370;-83
2022/03/29 12:16:43;;;;;;;98.53;49.90;;;12.00;93.50;;;;;;5011417;28;20030;-83
2022/03/29 12:19:11;;;;;;;99.37;49.27;;;12.00;93.30;;;;;;5010354;28;20022;-82
2022/03/29 12:21:38;;;;;;;98.13;50.00;;;12.10;93.20;;;;;;5011337;28;20436;-83
2022/03/29 12:24:06;;;;;;;103.77;52.37;;;12.10;93.10;;;;;;5010972;28;20040;-83
2022/03/29 12:26:32;;;;;;;101.30;50.43;;;12.10;92.80;;;;;;5010955;28;20034;-83
2022/03/29 12:28:59;;;;;;;96.20;47.57;;;12.10;92.80;;;;;;5010124;28;20536;-83
2022/03/29 12:31:27;;;;;;;89.07;48.57;;;12.20;93.20;;;;;;5025879;28;20037;-84
2022/03/29 12:33:56;;;;;;;91.63;47.93;;;12.20;92.70;;;;;;5009570;28;20490;-84
2022/03/29 12:36:22;;;;;;;89.07;45.90;;;12.10;92.70;;;;;;5010991;28;20045;-83
2022/03/29 12:38:54;;;;;;;84.80;43.07;;;12.10;92.60;;;;;;5010581;28;20033;-83
2022/03/29 12:41:52;;;;;;;78.93;41.77;;;12.20;92.80;;;;;;5025490;28;20036;-83
2022/03/29 12:44:36;;;;;;;80.97;43.53;;;12.30;92.60;;;;;;5005655;28;20037;-84